Weather History for KCKC - March, 2013

Change the Weather History Date:

Friday, March 29, 2013

  Actual Average Record
Temperature  
Mean Temperature 27 °F -  
Max Temperature 44 °F 36 °F 55 °F (1998)
Min Temperature 10 °F 19 °F 1 °F (2011)
Degree Days  
Heating Degree Days 38    
Moisture  
Dew Point 12 °F    
Average Humidity 50    
Maximum Humidity 79    
Minimum Humidity 27    
Precipitation  
Precipitation 0.00 in - - ()
Sea Level Pressure  
Sea Level Pressure 30.17 in    
Wind  
Wind Speed 4 mph (SW)    
Max Wind Speed 12 mph    
Max Gust Speed 18 mph    
Visibility 10 miles    
Events      
Averages and records for this station are not official NWS values.
T = Trace of Precipitation, MM = Missing Value Source: NWS Daily Summary

Daily Weather History Graph

Daily Weather History Graph

Search for Another Location

Airport or City:

Trip Planner

Search our weather history database for the weather conditions in past years. The results will help you decide how hot, cold, wet, or windy it might be!

Date:

Astronomy

Mar. 29, 2013 Rise Set
Actual Time 6:45 AM CDT 7:27 PM CDT
Civil Twilight 6:14 AM CDT 7:58 PM CDT
Nautical Twilight 5:37 AM CDT 8:36 PM CDT
Astronomical Twilight 4:58 AM CDT 9:15 PM CDT
Moon 10:43 PM CDT (3/29) 7:41 AM CDT (3/29)
Length of Visible Light 13h 44m
Length of Day
12h 42m
Waning Gibbous, 93% of the Moon is Illuminated
Mar 29
Waning Gibbous
Apr 2
Last Quarter
Apr 10
New
Apr 18
First Quarter
Apr 25
Full

Hourly Weather History & Observations

Time (CDT) Temp. Windchill Dew Point Humidity Pressure Visibility Wind Dir Wind Speed Gust Speed Precip Events Conditions
12:13 AM 21.2 °F 16.4 °F 12.2 °F 68% 30.24 in 10.0 mi WSW 3.5 mph - N/A   Clear
12:33 AM 21.2 °F 16.4 °F 12.2 °F 68% 30.24 in 10.0 mi WSW 3.5 mph - N/A   Clear
12:54 AM 19.4 °F 12.8 °F 12.2 °F 74% 30.24 in 10.0 mi WSW 4.6 mph - N/A   Clear
1:14 AM 19.4 °F 14.3 °F 10.4 °F 68% 30.24 in 10.0 mi WSW 3.5 mph - N/A   Clear
1:33 AM 19.4 °F 14.3 °F 10.4 °F 68% 30.24 in 10.0 mi West 3.5 mph - N/A   Clear
1:53 AM 17.6 °F 10.7 °F 10.4 °F 73% 30.24 in 10.0 mi West 4.6 mph - N/A   Clear
2:14 AM 15.8 °F 10.2 °F 8.6 °F 73% 30.23 in 10.0 mi West 3.5 mph - N/A   Clear
2:34 AM 15.8 °F 8.6 °F 8.6 °F 73% 30.23 in 10.0 mi West 4.6 mph - N/A   Clear
2:53 AM 14.0 °F 8.2 °F 8.6 °F 79% 30.23 in 10.0 mi West 3.5 mph - N/A   Clear
3:13 AM 15.8 °F 10.2 °F 8.6 °F 73% 30.23 in 10.0 mi West 3.5 mph - N/A   Clear
3:33 AM 12.2 °F 4.3 °F 6.8 °F 79% 30.22 in 10.0 mi West 4.6 mph - N/A   Clear
3:54 AM 15.8 °F 7.2 °F 8.6 °F 73% 30.23 in 10.0 mi West 5.8 mph - N/A   Clear
4:13 AM 19.4 °F 11.5 °F 8.6 °F 63% 30.22 in 10.0 mi West 5.8 mph - N/A   Clear
4:34 AM 17.6 °F 9.3 °F 8.6 °F 68% 30.22 in 10.0 mi West 5.8 mph - N/A   Clear
4:53 AM 15.8 °F 7.2 °F 6.8 °F 68% 30.22 in 10.0 mi West 5.8 mph - N/A   Clear
5:13 AM 12.2 °F 4.3 °F 6.8 °F 79% 30.22 in 10.0 mi West 4.6 mph - N/A   Clear
5:34 AM 12.2 °F 4.3 °F 6.8 °F 79% 30.22 in 10.0 mi West 4.6 mph - N/A   Clear
5:53 AM 17.6 °F 12.3 °F 8.6 °F 68% 30.22 in 10.0 mi WSW 3.5 mph - N/A   Clear
6:14 AM 17.6 °F 9.3 °F 6.8 °F 63% 30.22 in 10.0 mi WNW 5.8 mph - N/A   Clear
6:34 AM 14.0 °F - 6.8 °F 73% 30.22 in 10.0 mi Calm Calm - N/A   Clear
6:53 AM 10.4 °F - 5.0 °F 79% 30.22 in 10.0 mi Calm Calm - N/A   Clear
7:14 AM 12.2 °F - 6.8 °F 79% 30.22 in 10.0 mi Calm Calm - N/A   Clear
7:34 AM 15.8 °F - 8.6 °F 73% 30.22 in 10.0 mi Calm Calm - N/A   Clear
7:53 AM 19.4 °F - 8.6 °F 63% 30.22 in 10.0 mi Calm Calm - N/A   Clear
8:13 AM 24.8 °F 20.5 °F 8.6 °F 50% 30.22 in 10.0 mi West 3.5 mph - N/A   Clear
8:34 AM 32.0 °F 27.5 °F 12.2 °F 44% 30.22 in 10.0 mi West 4.6 mph - N/A   Clear
8:54 AM 37.4 °F 34.9 °F 12.2 °F 36% 30.22 in 10.0 mi West 3.5 mph - N/A   Clear
9:13 AM 37.4 °F - 12.2 °F 36% 30.22 in 10.0 mi Calm Calm - N/A   Clear
9:33 AM 39.2 °F - 12.2 °F 33% 30.22 in 10.0 mi Calm Calm - N/A   Clear
9:54 AM 42.8 °F 39.3 °F 14.0 °F 31% 30.21 in 10.0 mi West 5.8 mph - N/A   Clear
10:13 AM 42.8 °F 40.1 °F 14.0 °F 31% 30.21 in 10.0 mi SSW 4.6 mph - N/A   Clear
10:34 AM 42.8 °F 40.1 °F 14.0 °F 31% 30.21 in 10.0 mi SW 4.6 mph - N/A   Clear
10:54 AM 44.6 °F - 14.0 °F 29% 30.21 in 10.0 mi Calm Calm - N/A   Clear
11:13 AM 44.6 °F 41.4 °F 14.0 °F 29% 30.21 in 10.0 mi SW 5.8 mph - N/A   Clear
11:54 AM 44.6 °F 41.4 °F 14.0 °F 29% 30.20 in 10.0 mi SSW 5.8 mph - N/A   Clear
12:14 PM 44.6 °F 40.7 °F 12.2 °F 27% 30.19 in 10.0 mi South 6.9 mph - N/A   Clear
12:34 PM 44.6 °F 39.7 °F 14.0 °F 29% 30.19 in 10.0 mi SSE 9.2 mph - N/A   Clear
12:54 PM 44.6 °F 39.7 °F 14.0 °F 29% 30.18 in 10.0 mi South 9.2 mph - N/A   Clear
1:13 PM 44.6 °F 38.8 °F 14.0 °F 29% 30.18 in 10.0 mi South 11.5 mph 17.3 mph N/A   Clear
1:34 PM 44.6 °F 39.2 °F 14.0 °F 29% 30.18 in 10.0 mi South 10.4 mph - N/A   Clear
1:53 PM 44.6 °F 39.7 °F 14.0 °F 29% 30.17 in 10.0 mi South 9.2 mph - N/A   Clear
2:14 PM 42.8 °F 37.0 °F 12.2 °F 29% 30.16 in 10.0 mi South 10.4 mph 17.3 mph N/A   Clear
2:33 PM 42.8 °F 37.5 °F 12.2 °F 29% 30.16 in 10.0 mi South 9.2 mph 17.3 mph N/A   Clear
2:53 PM 42.8 °F 37.0 °F 12.2 °F 29% 30.16 in 10.0 mi South 10.4 mph - N/A   Clear
3:14 PM 42.8 °F 37.0 °F 12.2 °F 29% 30.15 in 10.0 mi South 10.4 mph 18.4 mph N/A   Clear
3:33 PM 42.8 °F 38.0 °F 12.2 °F 29% 30.14 in 10.0 mi South 8.1 mph 17.3 mph N/A   Clear
3:54 PM 42.8 °F 37.0 °F 12.2 °F 29% 30.14 in 10.0 mi SSW 10.4 mph 17.3 mph N/A   Clear
4:13 PM 42.8 °F 37.0 °F 12.2 °F 29% 30.13 in 10.0 mi SSW 10.4 mph - N/A   Clear
4:33 PM 42.8 °F 37.5 °F 12.2 °F 29% 30.13 in 10.0 mi SSW 9.2 mph - N/A   Clear
4:53 PM 42.8 °F 37.5 °F 12.2 °F 29% 30.12 in 10.0 mi SSW 9.2 mph - N/A   Clear
5:13 PM 42.8 °F 37.5 °F 12.2 °F 29% 30.12 in 10.0 mi South 9.2 mph - N/A   Clear
5:34 PM 41.0 °F 37.1 °F 12.2 °F 31% 30.12 in 10.0 mi South 5.8 mph - N/A   Clear
5:54 PM 39.2 °F 34.2 °F 12.2 °F 33% 30.12 in 10.0 mi South 6.9 mph - N/A   Clear
6:13 PM 39.2 °F 35.0 °F 12.2 °F 33% 30.11 in 10.0 mi South 5.8 mph - N/A   Clear
6:33 PM 39.2 °F 35.9 °F 12.2 °F 33% 30.11 in 10.0 mi South 4.6 mph - N/A   Clear
6:54 PM 37.4 °F 34.9 °F 14.0 °F 38% 30.10 in 10.0 mi South 3.5 mph - N/A   Clear
7:14 PM 35.6 °F - 14.0 °F 41% 30.09 in 10.0 mi Calm Calm - N/A   Clear
7:33 PM 33.8 °F - 14.0 °F 44% 30.09 in 10.0 mi Calm Calm - N/A   Clear
7:53 PM 33.8 °F 30.8 °F 12.2 °F 41% 30.09 in 10.0 mi South 3.5 mph - N/A   Clear
8:13 PM 33.8 °F - 12.2 °F 41% 30.08 in 10.0 mi Calm Calm - N/A   Clear
8:33 PM 32.0 °F 28.7 °F 12.2 °F 44% 30.08 in 10.0 mi South 3.5 mph - N/A   Clear
8:53 PM 32.0 °F 28.7 °F 12.2 °F 44% 30.08 in 10.0 mi SSW 3.5 mph - N/A   Clear
9:14 PM 32.0 °F - 12.2 °F 44% 30.08 in 10.0 mi Calm Calm - N/A   Clear
9:33 PM 32.0 °F - 12.2 °F 44% 30.08 in 10.0 mi Calm Calm - N/A   Clear
9:54 PM 32.0 °F - 12.2 °F 44% 30.07 in 10.0 mi Calm Calm - N/A   Clear
10:14 PM 28.4 °F - 17.6 °F 64% 30.07 in 10.0 mi Calm Calm - N/A   Clear
10:33 PM 26.6 °F - 17.6 °F 69% 30.06 in 10.0 mi Calm Calm - N/A   Clear
10:53 PM 26.6 °F - 15.8 °F 64% 30.06 in 10.0 mi Calm Calm - N/A   Clear
11:14 PM 26.6 °F - 15.8 °F 64% 30.05 in 10.0 mi Calm Calm - N/A   Clear
11:34 PM 24.8 °F - 17.6 °F 74% 30.04 in 10.0 mi Calm Calm - N/A   Clear
11:53 PM 24.8 °F - 17.6 °F 74% 30.04 in 10.0 mi Calm Calm - N/A   Clear